createdAt,value
2024-01-21T00:00:39.084Z,7.07
2024-01-21T00:03:06.227Z,6.57
2024-01-21T00:05:33.286Z,7.07
2024-01-21T00:08:00.426Z,6.28
2024-01-21T00:10:27.423Z,6.38
2024-01-21T00:12:54.492Z,6.63
2024-01-21T00:15:23.528Z,6.55
2024-01-21T00:17:50.952Z,6.30
2024-01-21T00:20:18.763Z,6.65
2024-01-21T00:22:46.376Z,7.95
2024-01-21T00:25:13.537Z,5.57
2024-01-21T00:27:40.704Z,6.38
2024-01-21T00:30:08.282Z,5.63
2024-01-21T00:32:35.518Z,5.90
2024-01-21T00:35:02.536Z,5.97
2024-01-21T00:37:29.500Z,6.22
2024-01-21T00:39:56.701Z,7.22
2024-01-21T00:42:23.699Z,5.80
2024-01-21T00:44:50.812Z,7.43
2024-01-21T00:47:17.800Z,6.10
2024-01-21T00:49:44.969Z,5.57
2024-01-21T00:52:12.033Z,5.60
2024-01-21T00:54:39.068Z,6.00
2024-01-21T00:57:06.090Z,5.90
2024-01-21T00:59:33.174Z,5.18
2024-01-21T01:02:00.109Z,4.93
2024-01-21T01:04:27.174Z,5.55
2024-01-21T01:06:54.344Z,6.35
2024-01-21T01:09:21.390Z,5.53
2024-01-21T01:11:48.452Z,5.57
2024-01-21T01:14:15.570Z,5.65
2024-01-21T01:16:43.168Z,4.68
2024-01-21T01:19:10.374Z,4.63
2024-01-21T01:21:37.613Z,4.93
2024-01-21T01:24:05.034Z,4.18
2024-01-21T01:26:32.006Z,4.60
2024-01-21T01:28:59.491Z,4.60
2024-01-21T01:31:26.497Z,4.93
2024-01-21T01:33:53.692Z,3.97
2024-01-21T01:36:20.849Z,4.85
2024-01-21T01:38:47.921Z,5.38
2024-01-21T01:41:14.990Z,5.25
2024-01-21T01:43:41.969Z,4.78
2024-01-21T01:46:09.468Z,4.85
2024-01-21T01:48:36.932Z,4.70
2024-01-21T01:51:05.565Z,4.28
2024-01-21T01:53:35.707Z,4.45
2024-01-21T01:56:03.330Z,4.65
2024-01-21T01:58:30.821Z,4.45
2024-01-21T02:00:58.400Z,4.28
2024-01-21T02:03:25.702Z,3.55
2024-01-21T02:05:53.165Z,3.90
2024-01-21T02:08:20.562Z,3.75
2024-01-21T02:10:47.875Z,4.00
2024-01-21T02:13:16.267Z,4.05
2024-01-21T02:15:43.730Z,4.43
2024-01-21T02:18:11.269Z,4.72
2024-01-21T02:20:38.580Z,4.00
2024-01-21T02:23:11.157Z,3.63
2024-01-21T02:25:38.230Z,3.60
2024-01-21T02:28:05.481Z,3.70
2024-01-21T02:30:32.774Z,5.15
2024-01-21T02:32:59.916Z,4.45
2024-01-21T02:35:26.939Z,4.80
2024-01-21T02:37:54.010Z,4.38
2024-01-21T02:40:20.997Z,5.07
2024-01-21T02:42:47.991Z,4.28
2024-01-21T02:45:15.119Z,4.10
2024-01-21T02:47:42.186Z,4.50
2024-01-21T02:50:11.010Z,4.28
2024-01-21T02:52:38.082Z,3.17
2024-01-21T02:55:05.697Z,4.30
2024-01-21T02:57:32.705Z,3.85
2024-01-21T02:59:59.750Z,4.80
2024-01-21T03:02:26.722Z,3.30
2024-01-21T03:04:53.828Z,3.90
2024-01-21T03:07:20.826Z,3.83
2024-01-21T03:09:47.890Z,3.25
2024-01-21T03:12:15.051Z,3.17
2024-01-21T03:14:42.029Z,4.10
2024-01-21T03:17:09.246Z,3.45
2024-01-21T03:19:36.325Z,3.28
2024-01-21T03:22:04.035Z,4.13
2024-01-21T03:24:32.566Z,3.95
2024-01-21T03:26:59.606Z,3.45
2024-01-21T03:29:26.603Z,3.83
2024-01-21T03:31:53.590Z,3.58
2024-01-21T03:34:20.801Z,3.55
2024-01-21T03:36:47.924Z,3.63
2024-01-21T03:39:14.919Z,2.78
2024-01-21T03:41:41.996Z,2.85
2024-01-21T03:44:09.124Z,3.55
2024-01-21T03:46:36.086Z,3.03
2024-01-21T03:49:03.178Z,2.65
2024-01-21T03:51:30.308Z,3.83
2024-01-21T03:53:57.380Z,3.35
2024-01-21T03:56:24.433Z,3.00
2024-01-21T03:58:51.761Z,2.80
2024-01-21T04:01:18.943Z,3.05
2024-01-21T04:03:46.196Z,3.10
2024-01-21T04:06:13.273Z,3.63
2024-01-21T04:08:40.301Z,2.90
2024-01-21T04:11:07.362Z,3.15
2024-01-21T04:13:34.655Z,2.95
2024-01-21T04:16:01.808Z,3.20
2024-01-21T04:18:28.956Z,3.65
2024-01-21T04:20:56.010Z,2.80
2024-01-21T04:23:22.978Z,3.05
2024-01-21T04:25:51.271Z,3.05
2024-01-21T04:28:18.696Z,2.65
2024-01-21T04:30:46.230Z,2.97
2024-01-21T04:33:13.401Z,3.20
2024-01-21T04:35:40.441Z,2.85
2024-01-21T04:38:07.456Z,2.60
2024-01-21T04:40:34.486Z,3.00
2024-01-21T04:43:01.628Z,3.05
2024-01-21T04:45:28.744Z,3.03
2024-01-21T04:47:56.174Z,3.17
2024-01-21T04:50:23.192Z,3.28
2024-01-21T04:52:50.156Z,2.75
2024-01-21T04:55:17.100Z,3.22
2024-01-21T04:57:46.319Z,2.92
2024-01-21T05:00:14.078Z,2.55
2024-01-21T05:02:41.201Z,3.05
2024-01-21T05:05:08.366Z,3.22
2024-01-21T05:07:35.476Z,3.20
2024-01-21T05:10:02.758Z,2.58
2024-01-21T05:12:29.838Z,2.80
2024-01-21T05:14:57.271Z,2.45
2024-01-21T05:17:24.354Z,2.88
2024-01-21T05:19:51.467Z,2.67
2024-01-21T05:22:18.460Z,2.00
2024-01-21T05:24:45.439Z,2.80
2024-01-21T05:27:13.025Z,2.85
2024-01-21T05:29:43.919Z,2.50
2024-01-21T05:32:10.934Z,2.78
2024-01-21T05:34:37.964Z,2.90
2024-01-21T05:37:05.479Z,2.72
2024-01-21T05:39:35.832Z,3.65
2024-01-21T05:42:09.025Z,2.90
2024-01-21T05:44:36.206Z,3.47
2024-01-21T05:47:03.651Z,3.00
2024-01-21T05:49:34.820Z,2.83
2024-01-21T05:52:01.918Z,2.55
2024-01-21T05:54:29.007Z,2.90
2024-01-21T05:56:56.029Z,2.53
2024-01-21T05:59:23.154Z,3.25
2024-01-21T06:01:51.610Z,2.80
2024-01-21T06:04:18.843Z,3.83
2024-01-21T06:06:46.165Z,2.58
2024-01-21T06:09:13.572Z,2.78
2024-01-21T06:11:41.653Z,2.78
2024-01-21T06:14:09.066Z,2.88
2024-01-21T06:16:36.457Z,2.95
2024-01-21T06:19:04.171Z,3.13
2024-01-21T06:21:31.777Z,2.92
2024-01-21T06:23:58.856Z,3.00
2024-01-21T06:26:25.950Z,3.33
2024-01-21T06:28:53.756Z,2.60
2024-01-21T06:31:20.949Z,2.95
2024-01-21T06:33:48.153Z,2.28
2024-01-21T06:36:15.367Z,2.70
2024-01-21T06:38:42.514Z,2.97
2024-01-21T06:41:09.574Z,2.95
2024-01-21T06:43:36.648Z,2.92
2024-01-21T06:46:03.778Z,2.83
2024-01-21T06:48:30.989Z,2.88
2024-01-21T06:50:58.090Z,2.67
2024-01-21T06:53:25.118Z,2.97
2024-01-21T06:55:52.253Z,2.85
2024-01-21T06:58:19.284Z,3.03
2024-01-21T07:00:52.668Z,3.17
2024-01-21T07:03:20.704Z,3.28
2024-01-21T07:05:48.223Z,3.30
2024-01-21T07:08:15.457Z,2.80
2024-01-21T07:10:42.502Z,3.03
2024-01-21T07:13:09.592Z,3.17
2024-01-21T07:15:36.760Z,4.00
2024-01-21T07:18:06.540Z,3.95
2024-01-21T07:20:35.435Z,3.33
2024-01-21T07:23:02.703Z,3.65
2024-01-21T07:25:29.669Z,3.97
2024-01-21T07:27:56.825Z,3.78
2024-01-21T07:30:24.003Z,3.25
2024-01-21T07:32:53.795Z,2.70
2024-01-21T07:35:22.650Z,3.25
2024-01-21T07:37:49.896Z,3.95
2024-01-21T07:40:16.968Z,3.50
2024-01-21T07:42:43.934Z,4.13
2024-01-21T07:45:12.666Z,3.83
2024-01-21T07:47:40.106Z,3.70
2024-01-21T07:50:08.590Z,2.85
2024-01-21T07:52:35.842Z,3.38
2024-01-21T07:55:02.942Z,3.95
2024-01-21T07:57:29.963Z,3.92
2024-01-21T07:59:56.976Z,3.08
2024-01-21T08:02:28.116Z,3.40
2024-01-21T08:04:55.175Z,3.38
2024-01-21T08:07:22.136Z,3.10
2024-01-21T08:09:49.220Z,3.67
2024-01-21T08:12:16.163Z,3.20
2024-01-21T08:14:43.058Z,3.97
2024-01-21T08:17:09.992Z,4.03
2024-01-21T08:19:39.532Z,3.72
2024-01-21T08:22:12.125Z,3.33
2024-01-21T08:24:39.915Z,3.20
2024-01-21T08:27:08.192Z,3.70
2024-01-21T08:29:35.298Z,3.08
2024-01-21T08:32:04.985Z,3.65
2024-01-21T08:34:35.491Z,2.97
2024-01-21T08:37:02.787Z,4.00
2024-01-21T08:39:29.841Z,3.47
2024-01-21T08:41:56.910Z,3.42
2024-01-21T08:44:23.941Z,3.30
2024-01-21T08:46:51.596Z,3.00
2024-01-21T08:49:18.572Z,4.00
2024-01-21T08:51:45.701Z,3.80
2024-01-21T08:54:12.724Z,3.13
2024-01-21T08:56:41.815Z,3.50
2024-01-21T08:59:08.966Z,3.60
2024-01-21T09:01:36.036Z,3.13
2024-01-21T09:04:03.540Z,3.70
2024-01-21T09:06:31.880Z,2.90
2024-01-21T09:08:59.574Z,3.10
2024-01-21T09:11:27.005Z,4.88
2024-01-21T09:13:54.085Z,3.78
2024-01-21T09:16:21.130Z,3.58
2024-01-21T09:18:48.564Z,2.90
2024-01-21T09:21:23.403Z,3.50
2024-01-21T09:23:57.092Z,3.13
2024-01-21T09:26:24.177Z,2.80
2024-01-21T09:28:51.223Z,3.40
2024-01-21T09:31:18.219Z,3.72
2024-01-21T09:33:45.720Z,4.15
2024-01-21T09:36:13.699Z,3.17
2024-01-21T09:38:40.770Z,3.25
2024-01-21T09:41:27.305Z,2.90
2024-01-21T09:43:54.410Z,3.17
2024-01-21T09:46:21.528Z,3.80
2024-01-21T09:48:49.168Z,3.45
2024-01-21T09:51:19.066Z,3.17
2024-01-21T09:53:46.300Z,3.67
2024-01-21T09:56:13.887Z,3.60
2024-01-21T09:58:50.658Z,3.60
2024-01-21T10:01:18.660Z,3.65
2024-01-21T10:03:47.716Z,3.13
2024-01-21T10:06:15.470Z,3.45
2024-01-21T10:08:46.359Z,3.53
2024-01-21T10:11:13.362Z,3.78
2024-01-21T10:13:40.418Z,3.47
2024-01-21T10:16:08.250Z,3.47
2024-01-21T10:18:36.200Z,3.67
2024-01-21T10:21:07.190Z,3.15
2024-01-21T10:23:34.640Z,3.75
2024-01-21T10:26:02.157Z,3.22
2024-01-21T10:28:34.215Z,3.63
2024-01-21T10:31:01.897Z,3.75
2024-01-21T10:33:31.478Z,3.75
2024-01-21T10:36:04.307Z,3.47
2024-01-21T10:38:37.954Z,3.70
2024-01-21T10:41:06.538Z,3.80
2024-01-21T10:43:35.478Z,4.60
2024-01-21T10:46:05.525Z,3.70
2024-01-21T10:48:34.642Z,3.33
2024-01-21T10:51:02.947Z,3.70
2024-01-21T10:53:30.928Z,4.03
2024-01-21T10:56:00.019Z,3.05
2024-01-21T10:58:27.885Z,3.90
2024-01-21T11:01:02.367Z,3.95
2024-01-21T11:03:32.753Z,4.10
2024-01-21T11:06:02.732Z,3.78
2024-01-21T11:08:30.684Z,3.83
2024-01-21T11:11:12.786Z,4.32
2024-01-21T11:13:47.997Z,4.18
2024-01-21T11:16:39.027Z,4.05
2024-01-21T11:19:10.309Z,3.38
2024-01-21T11:21:43.110Z,4.43
2024-01-21T11:24:15.310Z,5.25
2024-01-21T11:26:48.103Z,3.97
2024-01-21T11:29:26.593Z,4.30
2024-01-21T11:31:57.761Z,3.90
2024-01-21T11:34:26.528Z,4.30
2024-01-21T11:36:54.284Z,3.65
2024-01-21T11:39:25.404Z,5.00
2024-01-21T11:41:52.855Z,3.75
2024-01-21T11:44:30.379Z,4.60
2024-01-21T11:47:03.490Z,4.20
2024-01-21T11:49:34.212Z,4.03
2024-01-21T11:52:07.815Z,3.95
2024-01-21T11:54:40.875Z,3.25
2024-01-21T11:57:08.759Z,3.97
2024-01-21T11:59:36.924Z,4.10
2024-01-21T12:02:09.155Z,4.45
2024-01-21T12:04:38.348Z,4.35
2024-01-21T12:07:06.093Z,4.70
2024-01-21T12:09:33.467Z,4.63
2024-01-21T12:12:00.535Z,4.00
2024-01-21T12:14:27.676Z,3.92
2024-01-21T12:16:55.912Z,4.32
2024-01-21T12:19:26.508Z,4.47
2024-01-21T12:21:53.732Z,3.80
2024-01-21T12:24:24.324Z,4.72
2024-01-21T12:26:51.720Z,4.45
2024-01-21T12:29:22.071Z,3.95
2024-01-21T12:31:50.340Z,4.00
2024-01-21T12:34:20.243Z,3.53
2024-01-21T12:36:48.310Z,4.22
2024-01-21T12:39:17.520Z,4.50
2024-01-21T12:41:44.610Z,4.80
2024-01-21T12:44:11.950Z,4.90
2024-01-21T12:46:39.998Z,4.53
2024-01-21T12:49:08.251Z,4.97
2024-01-21T12:51:36.533Z,4.45
2024-01-21T12:54:03.709Z,4.60
2024-01-21T12:56:30.723Z,4.03
2024-01-21T12:58:57.698Z,4.80
2024-01-21T13:01:24.837Z,4.15
2024-01-21T13:03:54.377Z,4.40
2024-01-21T13:06:22.013Z,4.95
2024-01-21T13:08:49.940Z,4.45
2024-01-21T13:11:17.424Z,4.60
2024-01-21T13:13:44.514Z,4.78
2024-01-21T13:16:12.082Z,4.50
2024-01-21T13:18:39.928Z,4.85
2024-01-21T13:21:08.914Z,4.57
2024-01-21T13:23:36.580Z,4.28
2024-01-21T13:26:03.594Z,4.22
2024-01-21T13:28:39.955Z,5.03
2024-01-21T13:31:07.132Z,4.80
2024-01-21T13:33:34.561Z,4.60
2024-01-21T13:36:02.184Z,4.80
2024-01-21T13:38:35.050Z,5.15
2024-01-21T13:41:02.102Z,5.13
2024-01-21T13:43:29.365Z,4.97
2024-01-21T13:45:57.121Z,4.68
2024-01-21T13:48:24.237Z,4.13
2024-01-21T13:50:51.289Z,4.47
2024-01-21T13:53:18.777Z,5.30
2024-01-21T13:55:46.744Z,4.72
2024-01-21T13:58:18.386Z,5.63
2024-01-21T14:00:45.812Z,4.80
2024-01-21T14:03:13.406Z,4.60
2024-01-21T14:05:41.667Z,4.13
2024-01-21T14:08:08.944Z,4.78
2024-01-21T14:10:36.023Z,4.50
2024-01-21T14:13:03.366Z,4.40
2024-01-21T14:15:30.415Z,4.78
2024-01-21T14:17:58.005Z,5.40
2024-01-21T14:20:25.088Z,5.00
2024-01-21T14:22:52.105Z,4.32
2024-01-21T14:25:28.907Z,4.70
2024-01-21T14:27:56.176Z,4.47
2024-01-21T14:30:36.913Z,5.28
2024-01-21T14:33:05.317Z,4.68
2024-01-21T14:35:33.474Z,4.78
2024-01-21T14:38:00.890Z,4.53
2024-01-21T14:40:28.668Z,4.65
2024-01-21T14:42:56.878Z,4.90
2024-01-21T14:45:24.391Z,5.50
2024-01-21T14:47:52.177Z,5.05
2024-01-21T14:50:20.193Z,5.95
2024-01-21T14:52:48.865Z,4.72
2024-01-21T14:55:16.471Z,5.35
2024-01-21T14:57:45.897Z,5.15
2024-01-21T15:00:15.186Z,5.10
2024-01-21T15:02:42.553Z,4.80
2024-01-21T15:05:10.642Z,5.47
2024-01-21T15:07:42.542Z,5.07
2024-01-21T15:10:14.142Z,4.63
2024-01-21T15:12:44.875Z,6.07
2024-01-21T15:15:18.727Z,6.03
2024-01-21T15:17:47.849Z,5.38
2024-01-21T15:20:15.396Z,5.55
2024-01-21T15:22:44.598Z,5.40
2024-01-21T15:25:12.540Z,5.32
2024-01-21T15:27:39.691Z,5.07
2024-01-21T15:30:07.956Z,5.45
2024-01-21T15:32:35.410Z,5.63
2024-01-21T15:35:02.802Z,4.93
2024-01-21T15:37:29.925Z,5.95
2024-01-21T15:39:58.589Z,6.18
2024-01-21T15:42:25.798Z,5.38
2024-01-21T15:44:52.778Z,5.78
2024-01-21T15:47:19.764Z,5.70
2024-01-21T15:49:47.264Z,6.82
2024-01-21T15:52:14.486Z,5.72
2024-01-21T15:54:41.622Z,6.13
2024-01-21T15:57:08.719Z,5.57
2024-01-21T15:59:35.693Z,5.13
2024-01-21T16:02:02.948Z,6.10
2024-01-21T16:04:29.926Z,4.97
2024-01-21T16:06:56.945Z,6.82
2024-01-21T16:09:23.982Z,5.88
2024-01-21T16:11:52.320Z,5.80
2024-01-21T16:14:19.369Z,5.53
2024-01-21T16:16:48.643Z,6.45
2024-01-21T16:19:16.469Z,6.53
2024-01-21T16:21:44.185Z,6.47
2024-01-21T16:24:14.869Z,6.70
2024-01-21T16:26:42.811Z,5.82
2024-01-21T16:29:10.964Z,6.97
2024-01-21T16:31:39.554Z,6.05
2024-01-21T16:34:08.008Z,6.28
2024-01-21T16:36:35.116Z,6.13
2024-01-21T16:39:04.004Z,6.93
2024-01-21T16:41:31.130Z,6.70
2024-01-21T16:44:02.534Z,6.40
2024-01-21T16:46:30.737Z,6.10
2024-01-21T16:48:58.533Z,5.82
2024-01-21T16:51:32.201Z,6.97
2024-01-21T16:54:01.534Z,6.68
2024-01-21T16:56:29.000Z,6.25
2024-01-21T16:58:58.279Z,7.32
2024-01-21T17:01:26.544Z,7.18
2024-01-21T17:03:54.109Z,6.75
2024-01-21T17:06:21.336Z,7.68
2024-01-21T17:08:49.302Z,6.82
2024-01-21T17:11:22.834Z,7.03
2024-01-21T17:13:49.893Z,5.65
2024-01-21T17:16:16.937Z,8.35
2024-01-21T17:19:05.683Z,6.75
2024-01-21T17:21:33.517Z,6.47
2024-01-21T17:24:03.529Z,6.40
2024-01-21T17:26:30.667Z,6.28
2024-01-21T17:28:57.722Z,6.88
2024-01-21T17:31:24.809Z,7.25
2024-01-21T17:33:52.897Z,7.20
2024-01-21T17:36:20.008Z,5.90
2024-01-21T17:38:47.905Z,6.03
2024-01-21T17:41:14.917Z,6.38
2024-01-21T17:43:42.002Z,6.78
2024-01-21T17:46:09.097Z,7.40
2024-01-21T17:48:36.377Z,6.45
2024-01-21T17:51:03.886Z,6.60
2024-01-21T17:53:30.980Z,6.72
2024-01-21T17:55:58.007Z,6.78
2024-01-21T17:58:25.006Z,8.57
2024-01-21T18:00:52.288Z,9.27
2024-01-21T18:03:19.467Z,6.35
2024-01-21T18:05:46.585Z,7.88
2024-01-21T18:08:13.895Z,5.90
2024-01-21T18:10:40.864Z,6.80
2024-01-21T18:13:08.890Z,6.28
2024-01-21T18:15:37.085Z,5.97
2024-01-21T18:18:05.555Z,5.95
2024-01-21T18:20:32.586Z,7.35
2024-01-21T18:22:59.640Z,6.75
2024-01-21T18:25:26.648Z,6.85
2024-01-21T18:27:53.724Z,6.47
2024-01-21T18:30:20.732Z,6.80
2024-01-21T18:32:47.963Z,5.50
2024-01-21T18:35:15.211Z,6.15
2024-01-21T18:37:42.180Z,5.93
2024-01-21T18:40:11.551Z,7.07
2024-01-21T18:42:38.520Z,6.07
2024-01-21T18:45:07.785Z,6.82
2024-01-21T18:47:35.071Z,6.13
2024-01-21T18:50:02.365Z,6.40
2024-01-21T18:52:29.438Z,6.15
2024-01-21T18:54:57.977Z,5.97
2024-01-21T18:57:25.361Z,6.95
2024-01-21T18:59:52.510Z,5.32
2024-01-21T19:02:19.616Z,5.78
2024-01-21T19:04:49.918Z,6.43
2024-01-21T19:07:17.816Z,6.10
2024-01-21T19:09:44.920Z,6.78
2024-01-21T19:12:17.527Z,6.05
2024-01-21T19:14:44.792Z,6.43
2024-01-21T19:17:12.311Z,6.68
2024-01-21T19:19:39.444Z,5.90
2024-01-21T19:22:06.586Z,5.25
2024-01-21T19:24:33.614Z,6.38
2024-01-21T19:27:00.655Z,5.88
2024-01-21T19:29:27.754Z,5.28
2024-01-21T19:31:54.920Z,5.18
2024-01-21T19:34:22.035Z,5.20
2024-01-21T19:36:49.117Z,5.82
2024-01-21T19:39:16.228Z,5.75
2024-01-21T19:41:44.229Z,6.07
2024-01-21T19:44:11.247Z,5.95
2024-01-21T19:46:38.760Z,5.10
2024-01-21T19:49:06.538Z,5.70
2024-01-21T19:51:33.601Z,5.40
2024-01-21T19:54:00.697Z,4.45
2024-01-21T19:56:27.814Z,5.13
2024-01-21T19:58:54.913Z,4.22
2024-01-21T20:01:21.926Z,5.22
2024-01-21T20:03:49.025Z,6.28
2024-01-21T20:06:16.377Z,5.22
2024-01-21T20:08:43.737Z,5.13
2024-01-21T20:11:10.727Z,6.05
2024-01-21T20:13:37.702Z,4.93
2024-01-21T20:16:06.391Z,5.55
2024-01-21T20:18:33.485Z,4.90
2024-01-21T20:21:00.662Z,5.60
2024-01-21T20:23:27.714Z,4.70
2024-01-21T20:25:55.196Z,5.55
2024-01-21T20:28:22.292Z,6.68
2024-01-21T20:30:49.312Z,5.40
2024-01-21T20:33:16.590Z,5.38
2024-01-21T20:35:43.805Z,5.97
2024-01-21T20:38:11.100Z,5.25
2024-01-21T20:40:38.126Z,5.43
2024-01-21T20:43:05.232Z,4.60
2024-01-21T20:45:32.261Z,5.07
2024-01-21T20:47:59.745Z,5.55
2024-01-21T20:50:28.609Z,4.88
2024-01-21T20:52:56.543Z,5.20
2024-01-21T20:55:26.991Z,4.05
2024-01-21T20:57:54.364Z,4.82
2024-01-21T21:00:22.208Z,4.88
2024-01-21T21:02:49.322Z,4.65
2024-01-21T21:05:16.595Z,5.03
2024-01-21T21:07:43.849Z,4.80
2024-01-21T21:10:11.551Z,5.38
2024-01-21T21:12:38.546Z,4.13
2024-01-21T21:15:06.426Z,4.50
2024-01-21T21:17:33.493Z,4.20
2024-01-21T21:20:00.532Z,4.40
2024-01-21T21:22:29.717Z,4.63
2024-01-21T21:24:59.386Z,4.45
2024-01-21T21:27:26.452Z,3.88
2024-01-21T21:29:53.677Z,3.97
2024-01-21T21:32:20.760Z,4.10
2024-01-21T21:34:47.761Z,4.03
2024-01-21T21:37:14.848Z,4.10
2024-01-21T21:39:41.972Z,3.92
2024-01-21T21:42:09.012Z,4.75
2024-01-21T21:44:36.130Z,3.95
2024-01-21T21:47:03.222Z,4.13
2024-01-21T21:49:30.287Z,4.32
2024-01-21T21:51:58.765Z,4.60
2024-01-21T21:54:26.296Z,3.55
2024-01-21T21:56:53.697Z,4.72
2024-01-21T21:59:20.719Z,4.72
2024-01-21T22:01:48.196Z,5.30
2024-01-21T22:04:17.569Z,3.50
2024-01-21T22:06:45.631Z,4.32
2024-01-21T22:09:13.228Z,3.55
2024-01-21T22:11:40.467Z,4.07
2024-01-21T22:14:07.877Z,4.60
2024-01-21T22:16:35.600Z,3.72
2024-01-21T22:19:03.121Z,4.53
2024-01-21T22:21:30.384Z,4.03
2024-01-21T22:23:58.025Z,5.43
2024-01-21T22:26:25.091Z,4.13
2024-01-21T22:28:52.033Z,4.30
2024-01-21T22:31:19.029Z,4.10
2024-01-21T22:33:46.269Z,4.28
2024-01-21T22:36:13.531Z,4.45
2024-01-21T22:38:40.548Z,4.53
2024-01-21T22:41:07.553Z,4.13
2024-01-21T22:43:34.565Z,4.28
2024-01-21T22:46:01.604Z,3.78
2024-01-21T22:48:28.828Z,4.35
2024-01-21T22:50:56.095Z,4.38
2024-01-21T22:53:23.177Z,4.65
2024-01-21T22:55:50.177Z,3.70
2024-01-21T22:58:17.512Z,4.03
2024-01-21T23:00:44.529Z,4.60
2024-01-21T23:03:12.626Z,3.70
2024-01-21T23:05:39.653Z,3.47
2024-01-21T23:08:07.114Z,4.50
2024-01-21T23:10:34.141Z,3.88
2024-01-21T23:13:01.293Z,3.92
2024-01-21T23:15:28.309Z,3.25
2024-01-21T23:17:55.908Z,3.58
2024-01-21T23:20:23.054Z,3.63
2024-01-21T23:22:50.043Z,4.05
2024-01-21T23:25:17.000Z,3.50
2024-01-21T23:27:44.038Z,5.18
2024-01-21T23:30:11.454Z,4.10
2024-01-21T23:32:38.761Z,4.25
2024-01-21T23:35:06.082Z,3.83
2024-01-21T23:37:33.100Z,3.03
2024-01-21T23:40:00.153Z,3.70
2024-01-21T23:42:27.170Z,3.95
2024-01-21T23:44:54.365Z,4.38
2024-01-21T23:47:21.373Z,3.33
2024-01-21T23:49:48.444Z,3.10
2024-01-21T23:52:15.421Z,3.22
2024-01-21T23:54:44.220Z,2.85
2024-01-21T23:57:11.787Z,3.17
2024-01-21T23:59:39.665Z,3.15
